LIPX

Verona Villafranca Airport

Airport
ICAO code
LIPX
IATA Code
VRN
Summary
ICAO Region
EUR
ICAO Territory
Location

Villafranca di Verona, Veneto

Serving
Verona
Elevation
240 ft
Coordinates
45° 23' 50" N , 10° 53' 18" E
KCC
Airport WX
Fog
Metar
Observation
LIPX 241520Z 09006KT 050V130 9999 SCT050 BKN070 18/11 Q1015
Station
Verona / Villafranca
Date/Time
2022-09-24 15:20:00
Wind direction
90°
Wind speed
06 kts
Lowest cloud amount
scattered clouds
Temperature
18°C
Dew point
11°C
Humidity
63%
QNH
1015 hPa
Weather condition
n/a

Verona Airport, also known as Valerio Catullo Villafranca Airport or simply Verona-Villafranca Airport is an airport located 2.7 nm southwest of Verona, Italy.

Climatology

Humid “subtropical” climate influenced by the Mediterranean climate of the Italian Lakes (Köppen climate classification Cfa/Csa) - characterized by hot, humid summers and cool winters. Significant amounts of precipitation occur in all seasons in most areas. Winter rainfall (and sometimes snowfall) is associated with large storms that the westerlies steer from west to east. Most summer rainfall occurs during thunderstorms. High relative humidity frequently causes fog mainly from dusk until late morning.

Runways

Designator Length Width Surface Rops
4/22 3068 45 ASP Yes/Yes

Airport map

Aerial View

SKYbrary Partners:

Safety knowledge contributed by: